createdAt,value
2023-05-14T00:00:23.830Z,9.12
2023-05-14T00:01:27.943Z,9.10
2023-05-14T00:02:32.452Z,9.10
2023-05-14T00:03:36.667Z,9.09
2023-05-14T00:04:40.822Z,9.08
2023-05-14T00:05:45.062Z,9.06
2023-05-14T00:06:49.330Z,9.05
2023-05-14T00:07:53.764Z,9.05
2023-05-14T00:08:57.906Z,9.04
2023-05-14T00:10:02.211Z,9.04
2023-05-14T00:11:20.564Z,9.02
2023-05-14T00:12:23.631Z,9.02
2023-05-14T00:13:27.835Z,9.03
2023-05-14T00:14:32.090Z,9.03
2023-05-14T00:15:36.391Z,9.05
2023-05-14T00:16:40.733Z,9.07
2023-05-14T00:17:45.014Z,9.09
2023-05-14T00:18:49.215Z,9.10
2023-05-14T00:19:53.479Z,9.10
2023-05-14T00:20:57.823Z,9.14
2023-05-14T00:22:02.054Z,9.15
2023-05-14T00:23:06.482Z,9.17
2023-05-14T00:24:10.753Z,9.19
2023-05-14T00:25:15.008Z,9.19
2023-05-14T00:26:19.340Z,9.19
2023-05-14T00:27:23.559Z,9.18
2023-05-14T00:28:27.899Z,9.17
2023-05-14T00:29:32.131Z,9.14
2023-05-14T00:30:36.397Z,9.12
2023-05-14T00:31:40.794Z,9.08
2023-05-14T00:32:45.058Z,9.08
2023-05-14T00:33:49.399Z,9.06
2023-05-14T00:34:53.595Z,9.04
2023-05-14T00:35:57.849Z,9.01
2023-05-14T00:37:02.080Z,9.00
2023-05-14T00:38:06.456Z,8.97
2023-05-14T00:39:10.780Z,8.96
2023-05-14T00:40:15.093Z,8.96
2023-05-14T00:41:19.321Z,8.97
2023-05-14T00:42:23.615Z,8.97
2023-05-14T00:43:27.848Z,8.96
2023-05-14T00:44:32.160Z,8.95
2023-05-14T00:45:36.262Z,8.96
2023-05-14T00:46:40.645Z,8.96
2023-05-14T00:47:44.860Z,8.96
2023-05-14T00:48:49.103Z,8.97
2023-05-14T00:49:53.417Z,8.99
2023-05-14T00:50:57.738Z,8.98
2023-05-14T00:52:01.950Z,8.98
2023-05-14T00:53:06.299Z,8.96
2023-05-14T00:54:10.510Z,8.96
2023-05-14T00:55:14.752Z,8.96
2023-05-14T00:56:19.024Z,8.99
2023-05-14T00:57:23.327Z,9.00
2023-05-14T00:58:27.602Z,9.03
2023-05-14T00:59:31.870Z,9.04
2023-05-14T01:00:36.234Z,9.05
2023-05-14T01:01:40.403Z,9.05
2023-05-14T01:02:44.844Z,9.07
2023-05-14T01:03:49.202Z,9.06
2023-05-14T01:04:53.316Z,9.05
2023-05-14T01:05:57.590Z,9.04
2023-05-14T01:07:01.941Z,9.03
2023-05-14T01:08:06.197Z,9.04
2023-05-14T01:09:10.454Z,9.03
2023-05-14T01:10:14.654Z,9.03
2023-05-14T01:11:18.938Z,9.02
2023-05-14T01:12:23.104Z,9.02
2023-05-14T01:13:27.511Z,9.00
2023-05-14T01:14:31.722Z,8.99
2023-05-14T01:15:36.062Z,8.96
2023-05-14T01:16:40.405Z,8.95
2023-05-14T01:19:11.780Z,8.92
2023-05-14T01:20:15.959Z,8.93
2023-05-14T01:21:20.233Z,8.91
2023-05-14T01:22:24.455Z,8.89
2023-05-14T01:23:28.738Z,8.86
2023-05-14T01:24:33.105Z,8.86
2023-05-14T01:25:37.385Z,8.86
2023-05-14T01:26:41.691Z,8.87
2023-05-14T01:27:45.978Z,8.87
2023-05-14T01:28:50.197Z,8.88
2023-05-14T01:29:54.566Z,8.89
2023-05-14T01:30:58.845Z,8.90
2023-05-14T01:32:03.247Z,8.90
2023-05-14T01:33:07.473Z,8.90
2023-05-14T01:34:11.762Z,8.90
2023-05-14T01:35:16.020Z,8.91
2023-05-14T01:36:20.362Z,8.92
2023-05-14T01:37:24.594Z,8.91
2023-05-14T01:38:28.838Z,8.91
2023-05-14T01:39:33.176Z,8.91
2023-05-14T01:40:37.519Z,8.93
2023-05-14T01:41:41.822Z,8.95
2023-05-14T01:42:46.068Z,8.95
2023-05-14T01:43:50.295Z,8.96
2023-05-14T01:44:54.631Z,8.97
2023-05-14T01:45:58.884Z,8.98
2023-05-14T01:47:03.098Z,8.96
2023-05-14T01:48:07.446Z,8.95
2023-05-14T01:49:11.709Z,8.91
2023-05-14T01:50:15.981Z,8.88
2023-05-14T01:51:20.311Z,8.87
2023-05-14T01:52:24.542Z,8.85
2023-05-14T01:53:28.851Z,8.83
2023-05-14T01:54:33.071Z,8.82
2023-05-14T01:55:37.354Z,8.82
2023-05-14T01:56:41.608Z,8.81
2023-05-14T01:57:48.955Z,8.80
2023-05-14T01:58:52.208Z,8.81
2023-05-14T01:59:56.499Z,8.81
2023-05-14T02:01:00.793Z,8.83
2023-05-14T02:02:05.058Z,8.86
2023-05-14T02:03:09.417Z,8.89
2023-05-14T02:04:13.689Z,8.92
2023-05-14T02:05:17.970Z,8.96
2023-05-14T02:06:22.262Z,9.00
2023-05-14T02:07:26.491Z,9.04
2023-05-14T02:08:30.770Z,9.08
2023-05-14T02:09:35.098Z,9.12
2023-05-14T02:10:39.408Z,9.15
2023-05-14T02:11:43.630Z,9.17
2023-05-14T02:12:47.926Z,9.19
2023-05-14T02:13:52.266Z,9.21
2023-05-14T02:14:56.538Z,9.22
2023-05-14T02:16:00.850Z,9.23
2023-05-14T02:17:05.061Z,9.24
2023-05-14T02:18:09.488Z,9.25
2023-05-14T02:19:13.697Z,9.27
2023-05-14T02:20:17.921Z,9.27
2023-05-14T02:21:22.159Z,9.27
2023-05-14T02:22:26.510Z,9.27
2023-05-14T02:23:40.508Z,9.27
2023-05-14T02:24:35.117Z,9.26
2023-05-14T02:25:39.274Z,9.26
2023-05-14T02:26:43.576Z,9.24
2023-05-14T02:27:47.875Z,9.23
2023-05-14T02:28:52.185Z,9.24
2023-05-14T02:29:56.502Z,9.22
2023-05-14T02:31:00.856Z,9.21
2023-05-14T02:32:05.066Z,9.20
2023-05-14T02:33:15.440Z,9.19
2023-05-14T02:34:18.182Z,9.18
2023-05-14T02:35:22.401Z,9.19
2023-05-14T02:36:26.633Z,9.21
2023-05-14T02:37:30.911Z,9.21
2023-05-14T02:38:35.178Z,9.19
2023-05-14T02:39:39.454Z,9.17
2023-05-14T02:40:43.646Z,9.14
2023-05-14T02:41:47.892Z,9.13
2023-05-14T02:42:52.261Z,9.08
2023-05-14T02:43:56.464Z,9.04
2023-05-14T02:45:00.734Z,9.02
2023-05-14T02:46:05.130Z,9.01
2023-05-14T02:47:09.475Z,8.99
2023-05-14T02:48:13.667Z,8.95
2023-05-14T02:49:17.831Z,8.93
2023-05-14T02:50:22.332Z,8.91
2023-05-14T02:51:26.360Z,8.89
2023-05-14T02:52:30.650Z,8.89
2023-05-14T02:53:34.865Z,8.88
2023-05-14T02:54:39.107Z,8.87
2023-05-14T02:55:43.388Z,8.87
2023-05-14T02:56:47.686Z,8.87
2023-05-14T02:57:52.052Z,8.86
2023-05-14T02:58:56.281Z,8.85
2023-05-14T03:00:00.488Z,8.85
2023-05-14T03:01:04.862Z,8.86
2023-05-14T03:02:09.039Z,8.87
2023-05-14T03:03:16.388Z,8.88
2023-05-14T03:04:19.755Z,8.89
2023-05-14T03:05:24.122Z,8.90
2023-05-14T03:06:28.360Z,8.93
2023-05-14T03:07:32.653Z,8.95
2023-05-14T03:08:36.898Z,8.97
2023-05-14T03:09:41.179Z,8.99
2023-05-14T03:10:45.415Z,9.01
2023-05-14T03:11:49.758Z,9.04
2023-05-14T03:12:54.073Z,9.05
2023-05-14T03:13:58.272Z,9.10
2023-05-14T03:15:02.546Z,9.12
2023-05-14T03:16:06.792Z,9.16
2023-05-14T03:17:11.191Z,9.19
2023-05-14T03:18:15.317Z,9.24
2023-05-14T03:19:19.536Z,9.26
2023-05-14T03:20:24.090Z,9.28
2023-05-14T03:21:28.186Z,9.30
2023-05-14T03:22:32.492Z,9.31
2023-05-14T03:23:36.719Z,9.31
2023-05-14T03:24:41.037Z,9.32
2023-05-14T03:25:45.215Z,9.34
2023-05-14T03:26:49.594Z,9.35
2023-05-14T03:27:53.966Z,9.36
2023-05-14T03:28:58.223Z,9.35
2023-05-14T03:30:02.440Z,9.37
2023-05-14T03:31:06.696Z,9.39
2023-05-14T03:32:10.882Z,9.40
2023-05-14T03:33:15.170Z,9.41
2023-05-14T03:34:19.389Z,9.43
2023-05-14T03:35:23.663Z,9.42
2023-05-14T03:36:28.007Z,9.43
2023-05-14T03:37:32.300Z,9.41
2023-05-14T03:38:36.509Z,9.40
2023-05-14T03:39:40.768Z,9.39
2023-05-14T03:40:45.095Z,9.37
2023-05-14T03:41:49.312Z,9.36
2023-05-14T03:42:53.490Z,9.35
2023-05-14T03:43:57.831Z,9.35
2023-05-14T03:45:16.138Z,9.38
2023-05-14T03:46:19.299Z,9.41
2023-05-14T03:47:23.496Z,9.45
2023-05-14T03:48:27.939Z,9.49
2023-05-14T03:49:32.021Z,9.53
2023-05-14T03:50:36.316Z,9.55
2023-05-14T03:51:40.659Z,9.59
2023-05-14T03:52:44.973Z,9.61
2023-05-14T03:53:49.271Z,9.64
2023-05-14T03:54:53.550Z,9.64
2023-05-14T03:55:57.794Z,9.63
2023-05-14T03:57:02.149Z,9.66
2023-05-14T03:58:06.470Z,9.67
2023-05-14T03:59:10.804Z,9.68
2023-05-14T04:00:18.204Z,9.68
2023-05-14T04:01:21.551Z,9.68
2023-05-14T04:02:25.912Z,9.66
2023-05-14T04:03:30.257Z,9.65
2023-05-14T04:04:34.460Z,9.65
2023-05-14T04:05:38.602Z,9.65
2023-05-14T04:06:42.850Z,9.66
2023-05-14T04:07:47.136Z,9.68
2023-05-14T04:08:54.428Z,9.72
2023-05-14T04:09:57.786Z,9.75
2023-05-14T04:11:02.059Z,9.78
2023-05-14T04:12:06.308Z,9.83
2023-05-14T04:13:10.594Z,9.88
2023-05-14T04:14:15.047Z,9.91
2023-05-14T04:15:19.201Z,9.95
2023-05-14T04:16:23.504Z,10.00
2023-05-14T04:17:30.857Z,10.04
2023-05-14T04:18:34.404Z,10.09
2023-05-14T04:19:38.585Z,10.15
2023-05-14T04:20:42.915Z,10.20
2023-05-14T04:21:47.221Z,10.25
2023-05-14T04:22:51.449Z,10.32
2023-05-14T04:23:55.783Z,10.37
2023-05-14T04:25:00.107Z,10.43
2023-05-14T04:26:04.338Z,10.50
2023-05-14T04:27:08.621Z,10.56
2023-05-14T04:28:12.907Z,10.59
2023-05-14T04:29:17.180Z,10.65
2023-05-14T04:30:21.754Z,10.69
2023-05-14T04:31:25.860Z,10.73
2023-05-14T04:32:30.081Z,10.79
2023-05-14T04:33:34.449Z,10.86
2023-05-14T04:34:38.731Z,10.92
2023-05-14T04:35:43.062Z,10.96
2023-05-14T04:36:47.385Z,11.01
2023-05-14T04:37:51.634Z,11.06
2023-05-14T04:38:56.045Z,11.09
2023-05-14T04:40:00.296Z,11.12
2023-05-14T04:41:04.513Z,11.15
2023-05-14T04:42:08.880Z,11.22
2023-05-14T04:43:13.087Z,11.30
2023-05-14T04:44:17.460Z,11.38
2023-05-14T04:45:21.674Z,11.45
2023-05-14T04:46:26.054Z,11.50
2023-05-14T04:47:30.308Z,11.54
2023-05-14T04:48:34.730Z,11.57
2023-05-14T04:49:39.021Z,11.59
2023-05-14T04:50:43.354Z,11.65
2023-05-14T04:51:47.585Z,11.67
2023-05-14T04:52:51.979Z,11.70
2023-05-14T04:53:56.185Z,11.75
2023-05-14T04:55:00.493Z,11.80
2023-05-14T04:56:04.799Z,11.84
2023-05-14T04:57:09.154Z,11.86
2023-05-14T04:58:13.390Z,11.90
2023-05-14T04:59:17.668Z,11.98
2023-05-14T05:00:22.462Z,12.05
2023-05-14T05:01:26.345Z,12.09
2023-05-14T05:02:30.610Z,12.12
2023-05-14T05:03:34.874Z,12.17
2023-05-14T05:04:39.167Z,12.18
2023-05-14T05:05:43.530Z,12.20
2023-05-14T05:06:47.760Z,12.22
2023-05-14T05:07:52.154Z,12.25
2023-05-14T05:08:56.386Z,12.31
2023-05-14T05:10:00.810Z,12.34
2023-05-14T05:11:05.002Z,12.38
2023-05-14T05:12:09.304Z,12.40
2023-05-14T05:13:13.586Z,12.39
2023-05-14T05:14:17.903Z,12.41
2023-05-14T05:15:23.294Z,12.43
2023-05-14T05:16:26.642Z,12.41
2023-05-14T05:17:30.903Z,12.44
2023-05-14T05:18:35.338Z,12.44
2023-05-14T05:19:43.749Z,12.47
2023-05-14T05:20:43.832Z,12.48
2023-05-14T05:21:48.243Z,12.48
2023-05-14T05:22:52.514Z,12.47
2023-05-14T05:23:56.869Z,12.46
2023-05-14T05:25:01.177Z,12.46
2023-05-14T05:26:05.446Z,12.43
2023-05-14T05:27:09.741Z,12.41
2023-05-14T05:28:14.117Z,12.42
2023-05-14T05:29:18.465Z,12.43
2023-05-14T05:30:22.981Z,12.45
2023-05-14T05:31:27.141Z,12.47
2023-05-14T05:32:31.464Z,12.49
2023-05-14T05:33:35.824Z,12.50
2023-05-14T05:34:40.163Z,12.51
2023-05-14T05:35:44.393Z,12.50
2023-05-14T05:36:48.704Z,12.51
2023-05-14T05:37:53.020Z,12.53
2023-05-14T05:38:57.342Z,12.55
2023-05-14T05:40:01.662Z,12.57
2023-05-14T05:41:05.943Z,12.57
2023-05-14T05:42:10.338Z,12.57
2023-05-14T05:43:14.674Z,12.59
2023-05-14T05:44:19.007Z,12.61
2023-05-14T05:45:23.277Z,12.66
2023-05-14T05:46:27.724Z,12.70
2023-05-14T05:47:32.051Z,12.73
2023-05-14T05:48:36.334Z,12.74
2023-05-14T05:49:40.682Z,12.74
2023-05-14T05:50:44.976Z,12.71
2023-05-14T05:51:49.359Z,12.70
2023-05-14T05:52:53.702Z,12.69
2023-05-14T05:53:57.982Z,12.69
2023-05-14T05:55:02.283Z,12.71
2023-05-14T05:56:06.592Z,12.73
2023-05-14T05:57:16.942Z,12.65
2023-05-14T05:58:19.993Z,12.60
2023-05-14T05:59:24.288Z,12.55
2023-05-14T06:00:31.665Z,12.56
2023-05-14T06:01:35.283Z,12.61
2023-05-14T06:02:39.565Z,12.69
2023-05-14T06:03:44.859Z,12.78
2023-05-14T06:04:48.171Z,12.78
2023-05-14T06:05:52.527Z,12.75
2023-05-14T06:06:56.828Z,12.73
2023-05-14T06:08:01.037Z,12.73
2023-05-14T06:09:05.339Z,12.75
2023-05-14T06:10:09.686Z,12.81
2023-05-14T06:11:14.091Z,12.88
2023-05-14T06:12:18.439Z,12.94
2023-05-14T06:13:22.708Z,13.02
2023-05-14T06:14:27.037Z,13.08
2023-05-14T06:15:31.400Z,13.14
2023-05-14T06:16:35.820Z,13.16
2023-05-14T06:17:40.288Z,13.15
2023-05-14T06:18:44.605Z,13.14
2023-05-14T06:19:48.888Z,13.16
2023-05-14T06:20:53.196Z,13.15
2023-05-14T06:21:57.627Z,13.13
2023-05-14T06:23:01.973Z,13.14
2023-05-14T06:24:06.385Z,13.20
2023-05-14T06:25:10.739Z,13.25
2023-05-14T06:26:15.048Z,13.29
2023-05-14T06:27:19.383Z,13.32
2023-05-14T06:28:23.751Z,13.25
2023-05-14T06:29:28.150Z,13.21
2023-05-14T06:30:32.528Z,13.20
2023-05-14T06:31:36.803Z,13.25
2023-05-14T06:32:41.265Z,13.27
2023-05-14T06:33:45.500Z,13.23
2023-05-14T06:34:49.968Z,13.25
2023-05-14T06:35:54.312Z,13.21
2023-05-14T06:36:58.725Z,13.24
2023-05-14T06:38:03.027Z,13.33
2023-05-14T06:39:07.357Z,13.42
2023-05-14T06:40:11.767Z,13.51
2023-05-14T06:41:16.181Z,13.58
2023-05-14T06:42:20.543Z,13.57
2023-05-14T06:43:39.058Z,13.67
2023-05-14T06:44:42.464Z,13.81
2023-05-14T06:45:46.712Z,13.92
2023-05-14T06:46:51.146Z,13.96
2023-05-14T06:47:55.594Z,13.94
2023-05-14T06:48:59.930Z,13.95
2023-05-14T06:50:04.313Z,14.04
2023-05-14T06:51:08.736Z,14.01
2023-05-14T06:52:13.017Z,13.71
2023-05-14T06:53:17.512Z,13.52
2023-05-14T06:54:21.992Z,13.57
2023-05-14T06:55:26.456Z,13.74
2023-05-14T06:56:30.825Z,13.75
2023-05-14T06:57:35.157Z,13.40
2023-05-14T06:58:39.570Z,13.27
2023-05-14T06:59:43.877Z,13.07
2023-05-14T07:00:48.197Z,13.02
2023-05-14T07:01:52.630Z,12.94
2023-05-14T07:02:57.019Z,13.08
2023-05-14T07:04:01.464Z,12.96
2023-05-14T07:05:05.737Z,12.90
2023-05-14T07:06:12.532Z,12.94
2023-05-14T07:07:14.439Z,12.97
2023-05-14T07:08:18.871Z,13.20
2023-05-14T07:09:23.199Z,13.12
2023-05-14T07:10:27.694Z,13.37
2023-05-14T07:11:31.979Z,13.24
2023-05-14T07:12:36.450Z,13.16
2023-05-14T07:13:43.866Z,13.27
2023-05-14T07:14:47.308Z,13.43
2023-05-14T07:15:51.811Z,13.54
2023-05-14T07:16:56.142Z,13.68
2023-05-14T07:18:00.492Z,13.79
2023-05-14T07:19:04.979Z,13.62
2023-05-14T07:20:09.329Z,13.41
2023-05-14T07:21:13.704Z,13.51
2023-05-14T07:22:18.082Z,13.43
2023-05-14T07:23:22.524Z,13.42
2023-05-14T07:24:26.834Z,13.10
2023-05-14T07:25:34.159Z,13.08
2023-05-14T07:26:37.666Z,13.38
2023-05-14T07:27:42.079Z,13.54
2023-05-14T07:28:46.444Z,13.73
2023-05-14T07:29:50.773Z,13.81
2023-05-14T07:30:55.223Z,13.89
2023-05-14T07:31:59.602Z,13.94
2023-05-14T07:33:03.982Z,13.92
2023-05-14T07:34:08.248Z,13.92
2023-05-14T07:35:12.721Z,13.81
2023-05-14T07:36:17.002Z,13.92
2023-05-14T07:37:23.641Z,13.98
2023-05-14T07:38:31.713Z,14.05
2023-05-14T07:39:34.831Z,14.13
2023-05-14T07:40:39.080Z,14.11
2023-05-14T07:41:43.486Z,14.26
2023-05-14T07:42:47.864Z,14.38
2023-05-14T07:43:52.339Z,14.44
2023-05-14T07:44:56.715Z,14.50
2023-05-14T07:46:04.154Z,14.57
2023-05-14T07:47:07.736Z,14.25
2023-05-14T07:48:12.438Z,14.36
2023-05-14T07:49:16.354Z,14.16
2023-05-14T07:50:20.887Z,14.13
2023-05-14T07:51:25.130Z,14.01
2023-05-14T07:52:29.602Z,14.03
2023-05-14T07:53:34.049Z,14.10
2023-05-14T07:54:38.507Z,14.00
2023-05-14T07:55:42.736Z,13.28
2023-05-14T07:56:47.136Z,13.59
2023-05-14T07:57:51.594Z,12.66
2023-05-14T07:58:55.998Z,12.59
2023-05-14T08:00:00.526Z,12.66
2023-05-14T08:01:04.889Z,13.02
2023-05-14T08:02:09.264Z,13.21
2023-05-14T08:03:13.819Z,12.62
2023-05-14T08:04:18.200Z,12.08
2023-05-14T08:05:22.517Z,12.44
2023-05-14T08:06:26.943Z,12.77
2023-05-14T08:07:31.366Z,12.60
2023-05-14T08:08:35.816Z,12.30
2023-05-14T08:09:40.265Z,11.86
2023-05-14T08:10:44.650Z,11.93
2023-05-14T08:11:48.978Z,11.55
2023-05-14T08:12:56.442Z,11.48
2023-05-14T08:14:00.060Z,12.18
2023-05-14T08:15:04.477Z,11.97
2023-05-14T08:16:08.832Z,11.86
2023-05-14T08:17:13.244Z,11.98
2023-05-14T08:18:17.591Z,12.41
2023-05-14T08:20:48.899Z,12.04
2023-05-14T08:21:53.214Z,11.97
2023-05-14T08:22:57.544Z,12.28
2023-05-14T08:24:01.917Z,12.46
2023-05-14T08:25:06.346Z,11.96
2023-05-14T08:29:12.857Z,12.57
2023-05-14T08:30:14.032Z,12.78
2023-05-14T08:31:18.385Z,12.89
2023-05-14T08:32:24.057Z,13.02
2023-05-14T08:33:27.243Z,13.14
2023-05-14T08:34:31.666Z,12.52
2023-05-14T08:35:36.124Z,12.65
2023-05-14T08:36:40.522Z,12.69
2023-05-14T08:37:59.025Z,12.46
2023-05-14T08:39:02.378Z,12.69
2023-05-14T08:40:06.686Z,12.89
2023-05-14T08:41:11.048Z,12.90
2023-05-14T08:42:15.526Z,12.93
2023-05-14T08:43:19.885Z,12.85
2023-05-14T08:44:24.337Z,12.89
2023-05-14T08:45:28.741Z,12.99
2023-05-14T08:46:33.185Z,12.85
2023-05-14T08:47:37.636Z,12.86
2023-05-14T08:48:42.019Z,12.57
2023-05-14T08:49:46.423Z,12.66
2023-05-14T08:50:50.796Z,12.12
2023-05-14T08:51:55.269Z,11.67
2023-05-14T08:52:59.730Z,11.56
2023-05-14T08:54:04.121Z,11.68
2023-05-14T08:55:08.514Z,12.16
2023-05-14T08:56:13.007Z,12.16
2023-05-14T08:57:17.385Z,12.44
2023-05-14T08:58:21.824Z,12.68
2023-05-14T08:59:26.275Z,12.80
2023-05-14T09:00:44.745Z,12.71
2023-05-14T09:01:48.081Z,12.88
2023-05-14T09:02:52.397Z,12.91
2023-05-14T09:03:56.768Z,13.01
2023-05-14T09:05:01.186Z,12.97
2023-05-14T09:06:05.500Z,12.84
2023-05-14T09:07:09.963Z,13.03
2023-05-14T09:08:14.295Z,13.29
2023-05-14T09:09:18.697Z,13.30
2023-05-14T09:10:23.498Z,13.22
2023-05-14T09:11:27.508Z,12.57
2023-05-14T09:12:46.034Z,12.89
2023-05-14T09:13:49.544Z,13.16
2023-05-14T09:14:53.995Z,11.80
2023-05-14T09:15:58.344Z,12.30
2023-05-14T09:17:02.769Z,12.76
2023-05-14T09:18:07.334Z,12.94
2023-05-14T09:19:17.825Z,12.95
2023-05-14T09:20:20.819Z,13.13
2023-05-14T09:21:25.232Z,13.03
2023-05-14T09:22:29.579Z,12.81
2023-05-14T09:23:33.973Z,12.94
2023-05-14T09:24:38.379Z,13.02
2023-05-14T09:25:42.921Z,12.86
2023-05-14T09:26:47.357Z,12.96
2023-05-14T09:28:05.806Z,12.63
2023-05-14T09:29:23.260Z,12.08
2023-05-14T09:30:40.683Z,12.68
2023-05-14T09:31:44.134Z,12.61
2023-05-14T09:32:48.376Z,12.70
2023-05-14T09:33:52.863Z,12.70
2023-05-14T09:34:57.269Z,11.73
2023-05-14T09:36:01.760Z,11.68
2023-05-14T09:37:06.182Z,12.31
2023-05-14T09:38:10.631Z,12.24
2023-05-14T09:39:15.069Z,12.47
2023-05-14T09:40:22.673Z,12.17
2023-05-14T09:41:26.065Z,11.04
2023-05-14T09:42:30.390Z,10.89
2023-05-14T09:43:34.798Z,11.48
2023-05-14T09:44:39.274Z,10.95
2023-05-14T09:45:57.807Z,11.15
2023-05-14T09:47:01.183Z,11.67
2023-05-14T09:48:05.584Z,10.85
2023-05-14T09:49:09.824Z,11.21
2023-05-14T09:50:14.435Z,11.65
2023-05-14T09:51:18.797Z,11.90
2023-05-14T09:52:23.379Z,11.83
2023-05-14T09:53:27.679Z,11.78
2023-05-14T09:54:32.084Z,11.87
2023-05-14T09:55:36.548Z,11.39
2023-05-14T09:56:55.837Z,11.63
2023-05-14T09:57:58.320Z,11.62
2023-05-14T09:59:02.635Z,11.68
2023-05-14T10:00:07.093Z,11.33
2023-05-14T10:01:11.584Z,11.42
2023-05-14T10:02:15.945Z,11.55
2023-05-14T10:03:20.441Z,11.54
2023-05-14T10:04:24.814Z,11.37
2023-05-14T10:05:29.145Z,11.45
2023-05-14T10:06:33.630Z,11.65
2023-05-14T10:07:38.109Z,11.39
2023-05-14T10:08:42.581Z,11.78
2023-05-14T10:09:47.030Z,11.05
2023-05-14T10:10:57.484Z,11.18
2023-05-14T10:12:00.626Z,11.12
2023-05-14T10:13:04.952Z,10.47
2023-05-14T10:14:09.434Z,10.53
2023-05-14T10:15:13.893Z,10.29
2023-05-14T10:16:18.319Z,10.27
2023-05-14T10:17:22.700Z,10.46
2023-05-14T10:18:27.158Z,10.78
2023-05-14T10:19:45.610Z,10.78
2023-05-14T10:20:49.135Z,10.83
2023-05-14T10:21:53.427Z,10.53
2023-05-14T10:22:57.828Z,10.42
2023-05-14T10:24:16.347Z,10.23
2023-05-14T10:25:19.725Z,10.25
2023-05-14T10:26:30.130Z,9.81
2023-05-14T10:27:33.113Z,9.82
2023-05-14T10:28:37.557Z,10.42
2023-05-14T10:29:41.991Z,10.11
2023-05-14T10:31:00.504Z,10.01
2023-05-14T10:32:03.587Z,10.28
2023-05-14T10:33:07.989Z,10.58
2023-05-14T10:34:12.364Z,10.19
2023-05-14T10:35:16.701Z,10.25
2023-05-14T10:36:21.167Z,10.38
2023-05-14T10:37:25.710Z,10.13
2023-05-14T10:38:30.121Z,10.51
2023-05-14T10:39:34.551Z,10.51
2023-05-14T10:40:38.999Z,10.49
2023-05-14T10:41:43.414Z,10.70
2023-05-14T10:42:47.997Z,10.64
2023-05-14T10:43:52.293Z,10.75
2023-05-14T10:44:56.722Z,10.73
2023-05-14T10:46:01.188Z,10.42
2023-05-14T10:47:05.886Z,10.66
2023-05-14T10:48:10.007Z,10.73
2023-05-14T10:49:14.433Z,11.03
2023-05-14T10:50:18.889Z,11.33
2023-05-14T10:51:23.398Z,11.46
2023-05-14T10:52:27.779Z,10.85
2023-05-14T10:53:32.152Z,10.98
2023-05-14T10:54:50.707Z,11.21
2023-05-14T10:55:54.181Z,11.17
2023-05-14T10:56:58.606Z,11.32
2023-05-14T10:58:03.046Z,11.22
2023-05-14T10:59:07.437Z,11.17
2023-05-14T11:00:11.912Z,10.96
2023-05-14T11:01:19.344Z,10.98
2023-05-14T11:02:37.004Z,10.57
2023-05-14T11:03:40.352Z,10.57
2023-05-14T11:04:44.588Z,10.61
2023-05-14T11:05:49.097Z,10.97
2023-05-14T11:06:53.477Z,10.74
2023-05-14T11:07:57.874Z,10.53
2023-05-14T11:09:02.254Z,10.60
2023-05-14T11:10:06.768Z,10.72
2023-05-14T11:11:11.123Z,10.45
2023-05-14T11:12:15.509Z,10.46
2023-05-14T11:13:23.016Z,10.34
2023-05-14T11:14:26.514Z,10.41
2023-05-14T11:15:30.981Z,10.44
2023-05-14T11:16:35.460Z,10.37
2023-05-14T11:17:39.879Z,10.63
2023-05-14T11:18:44.354Z,10.49
2023-05-14T11:19:51.089Z,10.43
2023-05-14T11:20:53.072Z,10.64
2023-05-14T11:21:57.452Z,10.72
2023-05-14T11:23:01.913Z,10.55
2023-05-14T11:24:06.355Z,10.65
2023-05-14T11:25:10.700Z,10.75
2023-05-14T11:26:29.241Z,11.03
2023-05-14T11:27:33.542Z,10.85
2023-05-14T11:28:37.545Z,10.65
2023-05-14T11:29:42.011Z,10.68
2023-05-14T11:30:46.406Z,10.63
2023-05-14T11:31:50.814Z,10.74
2023-05-14T11:32:55.172Z,10.82
2023-05-14T11:33:59.605Z,11.01
2023-05-14T11:35:03.948Z,10.48
2023-05-14T11:36:08.564Z,10.63
2023-05-14T11:37:12.974Z,10.81
2023-05-14T11:38:17.328Z,10.99
2023-05-14T11:39:21.809Z,11.12
2023-05-14T11:40:26.404Z,11.08
2023-05-14T11:41:30.686Z,10.91
2023-05-14T11:42:35.146Z,10.95
2023-05-14T11:43:39.561Z,10.86
2023-05-14T11:44:43.912Z,11.05
2023-05-14T11:45:48.325Z,11.27
2023-05-14T11:46:52.681Z,11.31
2023-05-14T11:47:57.081Z,11.35
2023-05-14T11:49:15.527Z,11.38
2023-05-14T11:50:18.832Z,11.45
2023-05-14T11:51:23.284Z,11.58
2023-05-14T11:52:27.577Z,11.59
2023-05-14T11:53:32.035Z,11.56
2023-05-14T11:54:36.408Z,11.49
2023-05-14T11:55:40.785Z,11.47
2023-05-14T11:56:45.125Z,11.27
2023-05-14T11:57:49.669Z,11.03
2023-05-14T11:58:53.983Z,11.09
2023-05-14T11:59:58.357Z,11.36
2023-05-14T12:01:02.720Z,11.44
2023-05-14T12:02:07.252Z,11.41
2023-05-14T12:03:11.858Z,12.04
2023-05-14T12:04:16.164Z,12.41
2023-05-14T12:05:20.503Z,12.78
2023-05-14T12:06:24.918Z,12.99
2023-05-14T12:07:29.307Z,12.81
2023-05-14T12:08:33.798Z,12.22
2023-05-14T12:09:38.184Z,11.86
2023-05-14T12:10:42.648Z,11.88
2023-05-14T12:11:46.988Z,11.55
2023-05-14T12:12:51.460Z,11.59
2023-05-14T12:13:55.763Z,11.61
2023-05-14T12:15:00.197Z,11.66
2023-05-14T12:16:04.600Z,11.57
2023-05-14T12:17:15.077Z,11.46
2023-05-14T12:18:24.744Z,11.42
2023-05-14T12:19:22.619Z,11.60
2023-05-14T12:20:26.901Z,11.54
2023-05-14T12:21:31.263Z,11.50
2023-05-14T12:22:37.068Z,11.46
2023-05-14T12:23:40.249Z,11.47
2023-05-14T12:24:44.679Z,11.31
2023-05-14T12:25:49.000Z,11.22
2023-05-14T12:27:07.639Z,11.18
2023-05-14T12:28:10.512Z,11.13
2023-05-14T12:29:14.853Z,11.15
2023-05-14T12:30:21.261Z,11.17
2023-05-14T12:31:23.648Z,11.21
2023-05-14T12:32:34.141Z,11.25
2023-05-14T12:33:37.182Z,11.32
2023-05-14T12:34:41.461Z,11.33
2023-05-14T12:35:45.847Z,11.38
2023-05-14T12:36:50.265Z,11.40
2023-05-14T12:37:54.558Z,11.43
2023-05-14T12:39:05.020Z,11.47
2023-05-14T12:40:08.110Z,11.47
2023-05-14T12:41:12.523Z,11.52
2023-05-14T12:42:16.900Z,11.51
2023-05-14T12:43:21.285Z,11.56
2023-05-14T12:44:25.655Z,11.63
2023-05-14T12:45:30.138Z,11.67
2023-05-14T12:46:34.666Z,11.88
2023-05-14T12:47:38.893Z,11.85
2023-05-14T12:48:43.364Z,11.91
2023-05-14T12:49:47.712Z,11.97
2023-05-14T12:50:52.096Z,12.02
2023-05-14T12:52:04.476Z,12.06
2023-05-14T12:53:00.995Z,12.08
2023-05-14T12:54:05.435Z,12.10
2023-05-14T12:55:11.994Z,12.13
2023-05-14T12:56:14.155Z,12.14
2023-05-14T12:57:18.569Z,12.19
2023-05-14T12:58:22.935Z,12.37
2023-05-14T12:59:27.422Z,12.47
2023-05-14T13:00:31.792Z,12.59
2023-05-14T13:01:36.217Z,12.73
2023-05-14T13:02:42.240Z,12.74
2023-05-14T13:03:59.136Z,12.75
2023-05-14T13:05:02.332Z,12.76
2023-05-14T13:06:06.880Z,12.70
2023-05-14T13:07:11.120Z,12.74
2023-05-14T13:08:15.579Z,12.74
2023-05-14T13:09:19.979Z,12.74
2023-05-14T13:10:24.878Z,12.72
2023-05-14T13:11:28.683Z,12.68
2023-05-14T13:12:39.329Z,12.65
2023-05-14T13:13:42.329Z,12.64
2023-05-14T13:14:46.707Z,12.61
2023-05-14T13:15:51.084Z,12.65
2023-05-14T13:16:55.448Z,12.69
2023-05-14T13:17:59.875Z,12.75
2023-05-14T13:19:04.325Z,12.80
2023-05-14T13:20:08.680Z,12.87
2023-05-14T13:21:13.076Z,12.93
2023-05-14T13:22:17.490Z,13.03
2023-05-14T13:23:21.851Z,13.09
2023-05-14T13:24:26.320Z,13.25
2023-05-14T13:25:30.849Z,13.20
2023-05-14T13:26:35.267Z,13.11
2023-05-14T13:27:39.713Z,13.06
2023-05-14T13:28:44.083Z,13.04
2023-05-14T13:29:48.576Z,13.04
2023-05-14T13:30:52.969Z,13.01
2023-05-14T13:31:57.353Z,13.00
2023-05-14T13:33:01.819Z,13.01
2023-05-14T13:34:06.144Z,13.00
2023-05-14T13:35:10.616Z,12.94
2023-05-14T13:36:15.072Z,12.91
2023-05-14T13:37:19.455Z,12.99
2023-05-14T13:38:23.966Z,13.05
2023-05-14T13:39:28.338Z,13.07
2023-05-14T13:40:32.833Z,13.09
2023-05-14T13:41:37.269Z,13.11
2023-05-14T13:42:41.616Z,13.03
2023-05-14T13:43:46.081Z,12.74
2023-05-14T13:44:50.568Z,12.48
2023-05-14T13:45:54.921Z,12.55
2023-05-14T13:46:59.367Z,12.52
2023-05-14T13:48:04.071Z,12.58
2023-05-14T13:49:08.276Z,12.64
2023-05-14T13:50:12.639Z,12.61
2023-05-14T13:51:17.140Z,12.56
2023-05-14T13:52:21.464Z,12.57
2023-05-14T13:53:25.933Z,12.64
2023-05-14T13:54:30.281Z,12.58
2023-05-14T13:55:34.725Z,12.62
2023-05-14T13:56:42.092Z,12.58
2023-05-14T13:57:45.635Z,12.60
2023-05-14T13:58:50.098Z,12.59
2023-05-14T13:59:54.511Z,12.55
2023-05-14T14:00:59.003Z,12.47
2023-05-14T14:02:03.366Z,12.35
2023-05-14T14:03:07.883Z,12.07
2023-05-14T14:04:12.191Z,11.72
2023-05-14T14:05:19.678Z,11.50
2023-05-14T14:06:23.258Z,11.63
2023-05-14T14:07:27.644Z,11.86
2023-05-14T14:08:31.977Z,11.93